sensor_id;sensor_type;location;lat;lon;timestamp;pressure;altitude;pressure_sealevel;temperature;humidity
7105;BME280;3594;42.152;24.714;2023-06-24T00:00:57;61905.97;;;22.88;nan
7105;BME280;3594;42.152;24.714;2023-06-24T00:03:22;61829.16;;;22.53;nan
7105;BME280;3594;42.152;24.714;2023-06-24T00:05:48;61960.56;;;22.65;nan
7105;BME280;3594;42.152;24.714;2023-06-24T00:08:18;61829.97;;;22.56;nan
7105;BME280;3594;42.152;24.714;2023-06-24T00:10:47;61967.47;;;22.67;nan
7105;BME280;3594;42.152;24.714;2023-06-24T00:13:13;61789.84;;;22.38;nan
7105;BME280;3594;42.152;24.714;2023-06-24T00:15:39;61843.38;;;22.37;nan
7105;BME280;3594;42.152;24.714;2023-06-24T00:18:09;61864.53;;;22.63;nan
7105;BME280;3594;42.152;24.714;2023-06-24T00:20:35;61952.38;;;22.56;nan
7105;BME280;3594;42.152;24.714;2023-06-24T00:23:00;61838.31;;;22.44;nan
7105;BME280;3594;42.152;24.714;2023-06-24T00:25:26;61906.06;;;22.56;nan
7105;BME280;3594;42.152;24.714;2023-06-24T00:27:51;62075.53;;;22.47;nan
7105;BME280;3594;42.152;24.714;2023-06-24T00:30:17;61966.66;;;22.36;nan
7105;BME280;3594;42.152;24.714;2023-06-24T00:32:42;62049.88;;;22.24;nan
7105;BME280;3594;42.152;24.714;2023-06-24T00:35:09;61999.34;;;22.51;nan
7105;BME280;3594;42.152;24.714;2023-06-24T00:37:35;61946.22;;;22.29;nan
7105;BME280;3594;42.152;24.714;2023-06-24T00:40:01;61860.13;;;22.38;nan
7105;BME280;3594;42.152;24.714;2023-06-24T00:42:28;61748.44;;;22.01;nan
7105;BME280;3594;42.152;24.714;2023-06-24T00:44:54;61841.81;;;22.15;nan
7105;BME280;3594;42.152;24.714;2023-06-24T00:47:19;61899.72;;;22.27;nan
7105;BME280;3594;42.152;24.714;2023-06-24T00:49:45;61852.13;;;22.20;nan
7105;BME280;3594;42.152;24.714;2023-06-24T00:52:11;61792.94;;;22.16;nan
7105;BME280;3594;42.152;24.714;2023-06-24T00:54:41;61807.00;;;21.93;nan
7105;BME280;3594;42.152;24.714;2023-06-24T00:57:07;61815.56;;;22.13;nan
7105;BME280;3594;42.152;24.714;2023-06-24T00:59:33;61935.13;;;22.22;nan
7105;BME280;3594;42.152;24.714;2023-06-24T01:01:59;61823.00;;;22.03;nan
7105;BME280;3594;42.152;24.714;2023-06-24T01:04:30;61782.53;;;21.88;nan
7105;BME280;3594;42.152;24.714;2023-06-24T01:06:57;61805.38;;;21.87;nan
7105;BME280;3594;42.152;24.714;2023-06-24T01:09:22;61952.28;;;21.84;nan
7105;BME280;3594;42.152;24.714;2023-06-24T01:11:48;61822.03;;;22.21;nan
7105;BME280;3594;42.152;24.714;2023-06-24T01:14:14;61816.75;;;21.97;nan
7105;BME280;3594;42.152;24.714;2023-06-24T01:16:52;61799.53;;;21.91;nan
7105;BME280;3594;42.152;24.714;2023-06-24T01:27:52;61794.56;;;21.94;nan
7105;BME280;3594;42.152;24.714;2023-06-24T01:33:09;61784.63;;;21.99;nan
7105;BME280;3594;42.152;24.714;2023-06-24T01:35:35;61698.66;;;21.64;nan
7105;BME280;3594;42.152;24.714;2023-06-24T01:38:08;61735.97;;;21.63;nan
7105;BME280;3594;42.152;24.714;2023-06-24T01:40:41;61883.81;;;21.53;nan
7105;BME280;3594;42.152;24.714;2023-06-24T01:43:08;61789.88;;;21.83;nan
7105;BME280;3594;42.152;24.714;2023-06-24T01:45:41;61782.25;;;21.74;nan
7105;BME280;3594;42.152;24.714;2023-06-24T01:48:15;61743.50;;;21.76;nan
7105;BME280;3594;42.152;24.714;2023-06-24T01:50:55;61883.97;;;21.60;nan
7105;BME280;3594;42.152;24.714;2023-06-24T01:53:22;61860.44;;;21.81;nan
7105;BME280;3594;42.152;24.714;2023-06-24T01:55:49;61747.34;;;21.84;nan
7105;BME280;3594;42.152;24.714;2023-06-24T01:58:17;61743.25;;;21.74;nan
7105;BME280;3594;42.152;24.714;2023-06-24T02:00:43;61669.25;;;21.61;nan
7105;BME280;3594;42.152;24.714;2023-06-24T02:03:09;61750.75;;;21.32;nan
7105;BME280;3594;42.152;24.714;2023-06-24T02:05:36;63236.59;;;19.31;nan
7105;BME280;3594;42.152;24.714;2023-06-24T02:08:06;61845.03;;;21.55;nan
7105;BME280;3594;42.152;24.714;2023-06-24T02:10:35;61641.75;;;21.50;nan
7105;BME280;3594;42.152;24.714;2023-06-24T02:13:04;61741.78;;;21.47;nan
7105;BME280;3594;42.152;24.714;2023-06-24T02:15:30;61819.59;;;21.12;nan
7105;BME280;3594;42.152;24.714;2023-06-24T02:17:57;61704.28;;;20.74;nan
7105;BME280;3594;42.152;24.714;2023-06-24T02:20:23;61870.81;;;21.37;nan
7105;BME280;3594;42.152;24.714;2023-06-24T02:22:54;61834.13;;;21.06;nan
7105;BME280;3594;42.152;24.714;2023-06-24T02:25:20;61805.19;;;21.41;nan
7105;BME280;3594;42.152;24.714;2023-06-24T02:27:45;61888.28;;;21.29;nan
7105;BME280;3594;42.152;24.714;2023-06-24T02:30:13;61677.19;;;21.01;nan
7105;BME280;3594;42.152;24.714;2023-06-24T02:32:39;61848.00;;;21.37;nan
7105;BME280;3594;42.152;24.714;2023-06-24T02:35:05;61819.31;;;21.42;nan
7105;BME280;3594;42.152;24.714;2023-06-24T02:37:32;61732.31;;;21.01;nan
7105;BME280;3594;42.152;24.714;2023-06-24T02:39:58;61810.56;;;21.32;nan
7105;BME280;3594;42.152;24.714;2023-06-24T02:42:25;61806.50;;;21.33;nan
7105;BME280;3594;42.152;24.714;2023-06-24T02:44:50;61876.28;;;21.23;nan
7105;BME280;3594;42.152;24.714;2023-06-24T02:47:16;61765.81;;;21.31;nan
7105;BME280;3594;42.152;24.714;2023-06-24T02:49:44;61739.53;;;21.17;nan
7105;BME280;3594;42.152;24.714;2023-06-24T02:52:12;61702.47;;;20.93;nan
7105;BME280;3594;42.152;24.714;2023-06-24T02:54:38;61987.66;;;21.09;nan
7105;BME280;3594;42.152;24.714;2023-06-24T02:57:05;61980.25;;;21.02;nan
7105;BME280;3594;42.152;24.714;2023-06-24T02:59:32;61872.13;;;21.12;nan
7105;BME280;3594;42.152;24.714;2023-06-24T03:01:58;63408.25;;;19.07;nan
7105;BME280;3594;42.152;24.714;2023-06-24T03:04:25;61711.53;;;21.57;nan
7105;BME280;3594;42.152;24.714;2023-06-24T03:06:50;61919.53;;;22.06;nan
7105;BME280;3594;42.152;24.714;2023-06-24T03:09:18;61872.78;;;22.01;nan
7105;BME280;3594;42.152;24.714;2023-06-24T03:11:44;61943.81;;;22.64;nan
7105;BME280;3594;42.152;24.714;2023-06-24T03:14:10;62004.34;;;22.93;nan
7105;BME280;3594;42.152;24.714;2023-06-24T03:16:35;62016.38;;;23.26;nan
7105;BME280;3594;42.152;24.714;2023-06-24T03:19:01;62041.47;;;23.60;nan
7105;BME280;3594;42.152;24.714;2023-06-24T03:21:27;62154.56;;;23.87;nan
7105;BME280;3594;42.152;24.714;2023-06-24T03:23:56;62178.97;;;24.29;nan
7105;BME280;3594;42.152;24.714;2023-06-24T03:26:22;62286.78;;;25.08;nan
7105;BME280;3594;42.152;24.714;2023-06-24T03:28:47;62433.84;;;25.53;nan
7105;BME280;3594;42.152;24.714;2023-06-24T03:31:14;62408.81;;;25.98;nan
7105;BME280;3594;42.152;24.714;2023-06-24T03:33:41;62372.03;;;26.03;nan
7105;BME280;3594;42.152;24.714;2023-06-24T03:36:10;62316.50;;;26.25;nan
7105;BME280;3594;42.152;24.714;2023-06-24T03:38:35;62536.69;;;26.65;nan
7105;BME280;3594;42.152;24.714;2023-06-24T03:41:00;62362.19;;;25.87;nan
7105;BME280;3594;42.152;24.714;2023-06-24T03:43:26;62414.44;;;26.47;nan
7105;BME280;3594;42.152;24.714;2023-06-24T03:45:51;62434.16;;;26.90;nan
7105;BME280;3594;42.152;24.714;2023-06-24T03:48:17;62446.22;;;27.82;nan
7105;BME280;3594;42.152;24.714;2023-06-24T03:50:42;62641.78;;;28.34;nan
7105;BME280;3594;42.152;24.714;2023-06-24T03:53:07;62755.38;;;28.63;nan
7105;BME280;3594;42.152;24.714;2023-06-24T03:55:33;62782.81;;;28.91;nan
7105;BME280;3594;42.152;24.714;2023-06-24T03:57:58;62736.19;;;29.34;nan
7105;BME280;3594;42.152;24.714;2023-06-24T04:00:23;62802.50;;;29.39;nan
7105;BME280;3594;42.152;24.714;2023-06-24T04:02:49;62937.50;;;30.14;nan
7105;BME280;3594;42.152;24.714;2023-06-24T04:05:15;63243.16;;;30.11;nan
7105;BME280;3594;42.152;24.714;2023-06-24T04:07:41;63017.91;;;29.94;nan
7105;BME280;3594;42.152;24.714;2023-06-24T04:10:08;63080.25;;;30.79;nan
7105;BME280;3594;42.152;24.714;2023-06-24T04:12:35;63173.50;;;30.06;nan
7105;BME280;3594;42.152;24.714;2023-06-24T04:15:02;62964.78;;;29.73;nan
7105;BME280;3594;42.152;24.714;2023-06-24T04:19:53;62900.28;;;29.76;nan
7105;BME280;3594;42.152;24.714;2023-06-24T04:22:19;63250.81;;;30.09;nan
7105;BME280;3594;42.152;24.714;2023-06-24T04:24:44;63122.41;;;30.12;nan
7105;BME280;3594;42.152;24.714;2023-06-24T04:27:10;63212.16;;;29.75;nan
7105;BME280;3594;42.152;24.714;2023-06-24T04:29:35;62673.94;;;28.58;nan
7105;BME280;3594;42.152;24.714;2023-06-24T04:32:01;62693.13;;;28.49;nan
7105;BME280;3594;42.152;24.714;2023-06-24T04:34:26;62728.91;;;28.44;nan
7105;BME280;3594;42.152;24.714;2023-06-24T04:36:52;62716.97;;;28.29;nan
7105;BME280;3594;42.152;24.714;2023-06-24T04:39:17;62877.91;;;28.89;nan
7105;BME280;3594;42.152;24.714;2023-06-24T04:41:43;62783.25;;;28.85;nan
7105;BME280;3594;42.152;24.714;2023-06-24T04:44:08;62809.25;;;28.98;nan
7105;BME280;3594;42.152;24.714;2023-06-24T04:46:34;62915.34;;;29.02;nan
7105;BME280;3594;42.152;24.714;2023-06-24T04:49:00;62742.31;;;28.58;nan
7105;BME280;3594;42.152;24.714;2023-06-24T04:51:25;62759.44;;;28.50;nan
7105;BME280;3594;42.152;24.714;2023-06-24T04:53:52;62740.53;;;28.73;nan
7105;BME280;3594;42.152;24.714;2023-06-24T04:56:17;62932.25;;;29.19;nan
7105;BME280;3594;42.152;24.714;2023-06-24T04:58:55;62922.50;;;29.38;nan
7105;BME280;3594;42.152;24.714;2023-06-24T05:01:24;62890.94;;;29.22;nan
7105;BME280;3594;42.152;24.714;2023-06-24T05:03:50;62930.47;;;29.06;nan
7105;BME280;3594;42.152;24.714;2023-06-24T05:06:15;62924.69;;;28.89;nan
7105;BME280;3594;42.152;24.714;2023-06-24T05:08:41;62834.97;;;28.86;nan
7105;BME280;3594;42.152;24.714;2023-06-24T05:11:06;62756.75;;;29.06;nan
7105;BME280;3594;42.152;24.714;2023-06-24T05:13:31;62902.16;;;29.46;nan
7105;BME280;3594;42.152;24.714;2023-06-24T05:15:57;63043.16;;;30.33;nan
7105;BME280;3594;42.152;24.714;2023-06-24T05:18:22;63085.25;;;30.65;nan
7105;BME280;3594;42.152;24.714;2023-06-24T05:20:48;63109.03;;;30.77;nan
7105;BME280;3594;42.152;24.714;2023-06-24T05:23:13;63442.53;;;31.28;nan
7105;BME280;3594;42.152;24.714;2023-06-24T05:25:39;63312.69;;;31.63;nan
7105;BME280;3594;42.152;24.714;2023-06-24T05:28:04;63323.53;;;31.77;nan
7105;BME280;3594;42.152;24.714;2023-06-24T05:30:30;63377.91;;;32.31;nan
7105;BME280;3594;42.152;24.714;2023-06-24T05:32:55;63417.16;;;32.38;nan
7105;BME280;3594;42.152;24.714;2023-06-24T05:35:21;63576.44;;;32.75;nan
7105;BME280;3594;42.152;24.714;2023-06-24T05:37:46;63506.78;;;32.72;nan
7105;BME280;3594;42.152;24.714;2023-06-24T05:40:12;63732.56;;;33.17;nan
7105;BME280;3594;42.152;24.714;2023-06-24T05:42:38;63794.13;;;33.34;nan
7105;BME280;3594;42.152;24.714;2023-06-24T05:45:04;63608.47;;;33.38;nan
7105;BME280;3594;42.152;24.714;2023-06-24T05:47:30;63478.41;;;32.64;nan
7105;BME280;3594;42.152;24.714;2023-06-24T05:49:55;63368.81;;;31.75;nan
7105;BME280;3594;42.152;24.714;2023-06-24T05:52:20;63287.25;;;31.12;nan
7105;BME280;3594;42.152;24.714;2023-06-24T05:54:46;63027.16;;;30.53;nan
7105;BME280;3594;42.152;24.714;2023-06-24T05:57:12;62904.09;;;29.89;nan
7105;BME280;3594;42.152;24.714;2023-06-24T05:59:37;63089.41;;;29.48;nan
7105;BME280;3594;42.152;24.714;2023-06-24T06:02:03;62750.91;;;29.05;nan
7105;BME280;3594;42.152;24.714;2023-06-24T06:04:28;62777.75;;;28.82;nan
7105;BME280;3594;42.152;24.714;2023-06-24T06:06:55;62753.75;;;28.17;nan
7105;BME280;3594;42.152;24.714;2023-06-24T06:09:21;62877.22;;;28.05;nan
7105;BME280;3594;42.152;24.714;2023-06-24T06:11:47;62768.59;;;27.91;nan
7105;BME280;3594;42.152;24.714;2023-06-24T06:14:13;62700.84;;;28.19;nan
7105;BME280;3594;42.152;24.714;2023-06-24T06:16:39;62678.09;;;27.90;nan
7105;BME280;3594;42.152;24.714;2023-06-24T06:19:04;62662.91;;;27.90;nan
7105;BME280;3594;42.152;24.714;2023-06-24T06:21:29;62689.28;;;27.58;nan
7105;BME280;3594;42.152;24.714;2023-06-24T06:23:55;62654.31;;;27.83;nan
7105;BME280;3594;42.152;24.714;2023-06-24T06:26:21;62664.84;;;27.83;nan
7105;BME280;3594;42.152;24.714;2023-06-24T06:28:46;62717.66;;;27.97;nan
7105;BME280;3594;42.152;24.714;2023-06-24T06:31:15;62638.09;;;27.78;nan
7105;BME280;3594;42.152;24.714;2023-06-24T06:33:42;62721.31;;;28.02;nan
7105;BME280;3594;42.152;24.714;2023-06-24T06:36:10;62667.03;;;27.61;nan
7105;BME280;3594;42.152;24.714;2023-06-24T06:38:37;62622.69;;;27.87;nan
7105;BME280;3594;42.152;24.714;2023-06-24T06:41:02;62708.97;;;27.66;nan
7105;BME280;3594;42.152;24.714;2023-06-24T06:43:28;62743.66;;;28.10;nan
7105;BME280;3594;42.152;24.714;2023-06-24T06:45:53;62688.50;;;27.94;nan
7105;BME280;3594;42.152;24.714;2023-06-24T06:48:19;62619.00;;;27.70;nan
7105;BME280;3594;42.152;24.714;2023-06-24T06:50:45;62721.16;;;27.56;nan
7105;BME280;3594;42.152;24.714;2023-06-24T06:53:12;62640.97;;;27.52;nan
7105;BME280;3594;42.152;24.714;2023-06-24T06:55:38;62664.84;;;27.55;nan
7105;BME280;3594;42.152;24.714;2023-06-24T07:00:29;62688.13;;;27.29;nan
7105;BME280;3594;42.152;24.714;2023-06-24T07:02:55;62539.38;;;27.16;nan
7105;BME280;3594;42.152;24.714;2023-06-24T07:05:20;62665.03;;;27.18;nan
7105;BME280;3594;42.152;24.714;2023-06-24T07:07:46;62518.53;;;27.23;nan
7105;BME280;3594;42.152;24.714;2023-06-24T07:10:11;62692.63;;;27.65;nan
7105;BME280;3594;42.152;24.714;2023-06-24T07:12:38;62584.72;;;27.63;nan
7105;BME280;3594;42.152;24.714;2023-06-24T07:15:04;62697.06;;;27.90;nan
7105;BME280;3594;42.152;24.714;2023-06-24T07:17:29;62929.38;;;28.12;nan
7105;BME280;3594;42.152;24.714;2023-06-24T07:19:55;62781.47;;;28.32;nan
7105;BME280;3594;42.152;24.714;2023-06-24T07:22:20;62652.31;;;27.95;nan
7105;BME280;3594;42.152;24.714;2023-06-24T07:24:46;62787.88;;;27.89;nan
7105;BME280;3594;42.152;24.714;2023-06-24T07:27:11;63022.94;;;28.23;nan
7105;BME280;3594;42.152;24.714;2023-06-24T07:29:37;62854.00;;;28.43;nan
7105;BME280;3594;42.152;24.714;2023-06-24T07:32:02;62848.94;;;28.89;nan
7105;BME280;3594;42.152;24.714;2023-06-24T07:34:29;62644.81;;;26.93;nan
7105;BME280;3594;42.152;24.714;2023-06-24T07:36:55;62886.91;;;29.18;nan
7105;BME280;3594;42.152;24.714;2023-06-24T07:39:20;62846.31;;;28.62;nan
7105;BME280;3594;42.152;24.714;2023-06-24T07:41:46;62865.13;;;28.71;nan
7105;BME280;3594;42.152;24.714;2023-06-24T07:44:11;62825.97;;;28.41;nan
7105;BME280;3594;42.152;24.714;2023-06-24T07:46:37;62731.91;;;28.53;nan
7105;BME280;3594;42.152;24.714;2023-06-24T07:49:02;62837.25;;;28.61;nan
7105;BME280;3594;42.152;24.714;2023-06-24T07:51:28;62720.69;;;28.46;nan
7105;BME280;3594;42.152;24.714;2023-06-24T07:53:53;62905.41;;;28.58;nan
7105;BME280;3594;42.152;24.714;2023-06-24T07:56:19;62871.75;;;29.03;nan
7105;BME280;3594;42.152;24.714;2023-06-24T07:58:44;62927.13;;;28.98;nan
7105;BME280;3594;42.152;24.714;2023-06-24T08:01:10;63106.28;;;29.21;nan
7105;BME280;3594;42.152;24.714;2023-06-24T08:03:35;62838.13;;;28.75;nan
7105;BME280;3594;42.152;24.714;2023-06-24T08:06:02;62699.06;;;28.06;nan
7105;BME280;3594;42.152;24.714;2023-06-24T08:08:28;62755.50;;;28.30;nan
7105;BME280;3594;42.152;24.714;2023-06-24T08:10:53;62792.09;;;28.67;nan
7105;BME280;3594;42.152;24.714;2023-06-24T08:13:18;62762.66;;;28.50;nan
7105;BME280;3594;42.152;24.714;2023-06-24T08:15:44;62642.00;;;28.25;nan
7105;BME280;3594;42.152;24.714;2023-06-24T08:18:10;62708.56;;;28.51;nan
7105;BME280;3594;42.152;24.714;2023-06-24T08:20:35;62843.00;;;28.93;nan
7105;BME280;3594;42.152;24.714;2023-06-24T08:23:01;62856.16;;;28.93;nan
7105;BME280;3594;42.152;24.714;2023-06-24T08:25:27;62861.31;;;28.70;nan
7105;BME280;3594;42.152;24.714;2023-06-24T08:27:52;62770.56;;;28.23;nan
7105;BME280;3594;42.152;24.714;2023-06-24T08:30:18;62824.88;;;28.52;nan
7105;BME280;3594;42.152;24.714;2023-06-24T08:32:43;62741.31;;;28.64;nan
7105;BME280;3594;42.152;24.714;2023-06-24T08:35:09;62963.75;;;29.23;nan
7105;BME280;3594;42.152;24.714;2023-06-24T08:37:36;62964.13;;;29.49;nan
7105;BME280;3594;42.152;24.714;2023-06-24T08:40:01;62903.91;;;29.59;nan
7105;BME280;3594;42.152;24.714;2023-06-24T08:42:26;62963.94;;;29.70;nan
7105;BME280;3594;42.152;24.714;2023-06-24T08:44:52;62926.22;;;29.55;nan
7105;BME280;3594;42.152;24.714;2023-06-24T08:47:18;62893.84;;;29.64;nan
7105;BME280;3594;42.152;24.714;2023-06-24T08:49:48;62886.53;;;29.36;nan
7105;BME280;3594;42.152;24.714;2023-06-24T08:52:20;62825.91;;;29.25;nan
7105;BME280;3594;42.152;24.714;2023-06-24T08:54:49;62981.59;;;29.23;nan
7105;BME280;3594;42.152;24.714;2023-06-24T08:57:15;63144.72;;;29.32;nan
7105;BME280;3594;42.152;24.714;2023-06-24T08:59:41;63146.78;;;29.48;nan
7105;BME280;3594;42.152;24.714;2023-06-24T09:02:07;62968.31;;;29.44;nan
7105;BME280;3594;42.152;24.714;2023-06-24T09:04:34;62994.09;;;29.99;nan
7105;BME280;3594;42.152;24.714;2023-06-24T09:06:59;63105.72;;;30.25;nan
7105;BME280;3594;42.152;24.714;2023-06-24T09:09:25;63039.19;;;30.13;nan
7105;BME280;3594;42.152;24.714;2023-06-24T09:11:59;63093.13;;;30.53;nan
7105;BME280;3594;42.152;24.714;2023-06-24T09:14:26;63124.19;;;30.81;nan
7105;BME280;3594;42.152;24.714;2023-06-24T09:16:53;63146.66;;;30.73;nan
7105;BME280;3594;42.152;24.714;2023-06-24T09:19:23;63117.09;;;30.84;nan
7105;BME280;3594;42.152;24.714;2023-06-24T09:21:48;63080.88;;;30.52;nan
7105;BME280;3594;42.152;24.714;2023-06-24T09:24:14;63199.22;;;30.70;nan
7105;BME280;3594;42.152;24.714;2023-06-24T09:26:42;62937.03;;;30.09;nan
7105;BME280;3594;42.152;24.714;2023-06-24T09:29:10;62932.19;;;30.02;nan
7105;BME280;3594;42.152;24.714;2023-06-24T09:31:35;62995.72;;;30.05;nan
7105;BME280;3594;42.152;24.714;2023-06-24T09:34:00;62965.16;;;29.82;nan
7105;BME280;3594;42.152;24.714;2023-06-24T09:36:26;63235.25;;;30.11;nan
7105;BME280;3594;42.152;24.714;2023-06-24T09:38:51;62974.09;;;29.88;nan
7105;BME280;3594;42.152;24.714;2023-06-24T09:41:17;62923.72;;;29.62;nan
7105;BME280;3594;42.152;24.714;2023-06-24T09:43:43;63039.13;;;30.01;nan
7105;BME280;3594;42.152;24.714;2023-06-24T09:46:13;62927.78;;;29.77;nan
7105;BME280;3594;42.152;24.714;2023-06-24T09:48:39;62988.78;;;30.26;nan
7105;BME280;3594;42.152;24.714;2023-06-24T09:51:05;63046.59;;;30.36;nan
7105;BME280;3594;42.152;24.714;2023-06-24T09:53:34;63132.38;;;30.27;nan
7105;BME280;3594;42.152;24.714;2023-06-24T09:56:01;63326.28;;;30.52;nan
7105;BME280;3594;42.152;24.714;2023-06-24T09:58:33;63095.91;;;30.60;nan
7105;BME280;3594;42.152;24.714;2023-06-24T10:01:04;63025.69;;;30.15;nan
7105;BME280;3594;42.152;24.714;2023-06-24T10:03:32;63107.97;;;30.15;nan
7105;BME280;3594;42.152;24.714;2023-06-24T10:05:59;63147.78;;;30.18;nan
7105;BME280;3594;42.152;24.714;2023-06-24T10:08:26;63090.19;;;30.67;nan
7105;BME280;3594;42.152;24.714;2023-06-24T10:10:52;63144.44;;;30.38;nan
7105;BME280;3594;42.152;24.714;2023-06-24T10:13:18;62988.50;;;30.12;nan
7105;BME280;3594;42.152;24.714;2023-06-24T10:15:44;63060.91;;;30.25;nan
7105;BME280;3594;42.152;24.714;2023-06-24T10:18:36;63045.66;;;30.25;nan
7105;BME280;3594;42.152;24.714;2023-06-24T10:21:06;63205.63;;;30.27;nan
7105;BME280;3594;42.152;24.714;2023-06-24T10:26:29;62814.34;;;27.80;nan
7105;BME280;3594;42.152;24.714;2023-06-24T10:34:30;63109.44;;;30.58;nan
7105;BME280;3594;42.152;24.714;2023-06-24T10:37:01;63123.31;;;30.54;nan
7105;BME280;3594;42.152;24.714;2023-06-24T10:39:47;63202.94;;;31.03;nan
7105;BME280;3594;42.152;24.714;2023-06-24T10:42:43;63087.03;;;30.90;nan
7105;BME280;3594;42.152;24.714;2023-06-24T10:47:44;63118.84;;;30.97;nan
7105;BME280;3594;42.152;24.714;2023-06-24T10:50:12;63299.63;;;31.26;nan
7105;BME280;3594;42.152;24.714;2023-06-24T10:52:40;63259.59;;;31.16;nan
7105;BME280;3594;42.152;24.714;2023-06-24T10:55:06;63299.38;;;31.51;nan
7105;BME280;3594;42.152;24.714;2023-06-24T10:57:36;63226.75;;;31.54;nan
7105;BME280;3594;42.152;24.714;2023-06-24T11:00:03;63301.13;;;31.52;nan
7105;BME280;3594;42.152;24.714;2023-06-24T11:02:29;63189.38;;;31.33;nan
7105;BME280;3594;42.152;24.714;2023-06-24T11:04:59;63228.13;;;31.46;nan
7105;BME280;3594;42.152;24.714;2023-06-24T11:07:30;63168.56;;;31.31;nan
7105;BME280;3594;42.152;24.714;2023-06-24T11:10:05;63172.75;;;31.02;nan
7105;BME280;3594;42.152;24.714;2023-06-24T11:12:35;63234.41;;;31.40;nan
7105;BME280;3594;42.152;24.714;2023-06-24T11:15:03;63225.22;;;31.04;nan
7105;BME280;3594;42.152;24.714;2023-06-24T11:17:29;63129.84;;;30.90;nan
7105;BME280;3594;42.152;24.714;2023-06-24T11:19:56;63167.69;;;31.05;nan
7105;BME280;3594;42.152;24.714;2023-06-24T11:22:22;63111.25;;;30.83;nan
7105;BME280;3594;42.152;24.714;2023-06-24T11:24:48;63303.00;;;31.17;nan
7105;BME280;3594;42.152;24.714;2023-06-24T11:27:13;63214.34;;;31.18;nan
7105;BME280;3594;42.152;24.714;2023-06-24T11:29:39;63468.38;;;31.11;nan
7105;BME280;3594;42.152;24.714;2023-06-24T11:34:32;63226.34;;;31.33;nan
7105;BME280;3594;42.152;24.714;2023-06-24T11:36:58;63222.38;;;31.13;nan
7105;BME280;3594;42.152;24.714;2023-06-24T11:39:29;63126.28;;;31.20;nan
7105;BME280;3594;42.152;24.714;2023-06-24T11:41:57;63246.13;;;31.41;nan
7105;BME280;3594;42.152;24.714;2023-06-24T11:44:26;63210.66;;;31.12;nan
7105;BME280;3594;42.152;24.714;2023-06-24T11:46:51;63214.31;;;31.46;nan
7105;BME280;3594;42.152;24.714;2023-06-24T11:49:18;63302.38;;;31.21;nan
7105;BME280;3594;42.152;24.714;2023-06-24T11:51:49;63461.19;;;31.35;nan
7105;BME280;3594;42.152;24.714;2023-06-24T11:54:20;63343.53;;;31.76;nan
7105;BME280;3594;42.152;24.714;2023-06-24T11:56:51;63326.16;;;31.49;nan
7105;BME280;3594;42.152;24.714;2023-06-24T11:59:22;63399.97;;;31.74;nan
7105;BME280;3594;42.152;24.714;2023-06-24T12:01:56;63522.00;;;31.68;nan
7105;BME280;3594;42.152;24.714;2023-06-24T12:04:27;63155.66;;;31.18;nan
7105;BME280;3594;42.152;24.714;2023-06-24T12:06:53;63293.50;;;31.50;nan
7105;BME280;3594;42.152;24.714;2023-06-24T12:09:21;63215.81;;;31.45;nan
7105;BME280;3594;42.152;24.714;2023-06-24T12:11:46;63507.81;;;31.58;nan
7105;BME280;3594;42.152;24.714;2023-06-24T12:14:12;63226.69;;;31.59;nan
7105;BME280;3594;42.152;24.714;2023-06-24T12:16:39;63251.78;;;31.79;nan
7105;BME280;3594;42.152;24.714;2023-06-24T12:19:05;63304.19;;;31.74;nan
7105;BME280;3594;42.152;24.714;2023-06-24T12:21:30;63411.22;;;31.98;nan
7105;BME280;3594;42.152;24.714;2023-06-24T12:23:56;63356.31;;;32.10;nan
7105;BME280;3594;42.152;24.714;2023-06-24T12:26:22;63306.25;;;32.01;nan
7105;BME280;3594;42.152;24.714;2023-06-24T12:28:47;63315.41;;;31.86;nan
7105;BME280;3594;42.152;24.714;2023-06-24T12:31:12;63297.31;;;31.79;nan
7105;BME280;3594;42.152;24.714;2023-06-24T12:33:38;63324.66;;;31.78;nan
7105;BME280;3594;42.152;24.714;2023-06-24T12:36:04;64761.69;;;28.39;nan
7105;BME280;3594;42.152;24.714;2023-06-24T12:38:29;63276.16;;;31.79;nan
7105;BME280;3594;42.152;24.714;2023-06-24T12:40:54;63452.41;;;32.13;nan
7105;BME280;3594;42.152;24.714;2023-06-24T12:43:20;63319.88;;;32.11;nan
7105;BME280;3594;42.152;24.714;2023-06-24T12:45:45;63444.28;;;32.22;nan
7105;BME280;3594;42.152;24.714;2023-06-24T12:48:13;63409.06;;;32.03;nan
7105;BME280;3594;42.152;24.714;2023-06-24T12:50:38;63367.94;;;31.88;nan
7105;BME280;3594;42.152;24.714;2023-06-24T12:53:04;63380.78;;;32.06;nan
7105;BME280;3594;42.152;24.714;2023-06-24T12:55:30;63371.50;;;32.14;nan
7105;BME280;3594;42.152;24.714;2023-06-24T12:57:56;63331.97;;;31.93;nan
7105;BME280;3594;42.152;24.714;2023-06-24T13:00:22;63399.88;;;32.07;nan
7105;BME280;3594;42.152;24.714;2023-06-24T13:02:49;63203.06;;;32.01;nan
7105;BME280;3594;42.152;24.714;2023-06-24T13:05:15;63358.56;;;32.28;nan
7105;BME280;3594;42.152;24.714;2023-06-24T13:07:40;63376.78;;;32.42;nan
7105;BME280;3594;42.152;24.714;2023-06-24T13:10:06;63419.13;;;32.42;nan
7105;BME280;3594;42.152;24.714;2023-06-24T13:12:33;63714.91;;;32.99;nan
7105;BME280;3594;42.152;24.714;2023-06-24T13:14:58;63472.44;;;33.07;nan
7105;BME280;3594;42.152;24.714;2023-06-24T13:17:24;63385.47;;;32.61;nan
7105;BME280;3594;42.152;24.714;2023-06-24T13:19:50;63335.84;;;32.46;nan
7105;BME280;3594;42.152;24.714;2023-06-24T13:22:15;63398.91;;;32.52;nan
7105;BME280;3594;42.152;24.714;2023-06-24T13:24:41;63497.19;;;32.22;nan
7105;BME280;3594;42.152;24.714;2023-06-24T13:27:07;63308.50;;;32.19;nan
7105;BME280;3594;42.152;24.714;2023-06-24T13:29:32;63344.19;;;32.27;nan
7105;BME280;3594;42.152;24.714;2023-06-24T13:31:58;63349.59;;;32.23;nan
7105;BME280;3594;42.152;24.714;2023-06-24T13:34:23;63380.31;;;32.01;nan
7105;BME280;3594;42.152;24.714;2023-06-24T13:36:48;63328.56;;;32.02;nan
7105;BME280;3594;42.152;24.714;2023-06-24T13:39:14;63298.91;;;31.74;nan
7105;BME280;3594;42.152;24.714;2023-06-24T13:41:44;63319.06;;;31.80;nan
7105;BME280;3594;42.152;24.714;2023-06-24T13:44:09;63340.59;;;31.45;nan
7105;BME280;3594;42.152;24.714;2023-06-24T13:46:35;63338.69;;;31.53;nan
7105;BME280;3594;42.152;24.714;2023-06-24T13:49:01;63486.47;;;31.50;nan
7105;BME280;3594;42.152;24.714;2023-06-24T13:51:27;63379.38;;;31.75;nan
7105;BME280;3594;42.152;24.714;2023-06-24T13:53:54;63258.25;;;31.80;nan
7105;BME280;3594;42.152;24.714;2023-06-24T13:56:23;63268.78;;;31.68;nan
7105;BME280;3594;42.152;24.714;2023-06-24T13:58:50;63305.19;;;31.68;nan